Latest Weather Observations for Port Macquarie Airport

IDN60801

Issued at 3:32 pm EST Tuesday 1 September 2015 (issued every 30 minutes, with the page automatically refreshed every 10 minutes)

About weather observations | Map of weather stations | Latest weather observations for NSW | Other Formats
Station Details ID: 060139 Name: PORT MACQUARIE AIRPORT AWS Lat: -31.43 Lon: 152.87 Height: 4.2 m
Data from the previous 72 hours. | See also: Recent months at Port Macquarie Airport
Date/Time
EST
Temp
°C
App
Temp
°C
Dew
Point
Rel
Hum
%
Delta-T
°C
Wind Press
QNH
hPa
Press
MSL
hPa
Rain
since 9 am
mm
Dir
 
Spd
km/h
Gust
km/h
Spd
kts
Gust
kts
01/03:30pm 18.4 14.8 6.9 47 5.8 SSE 15 17 8 9 1013.0 1013.0 0.0
01/03:00pm 18.4 14.5 6.9 47 5.8 SSE 17 24 9 13 1012.9 1012.9 0.0
01/02:30pm 19.2 14.8 6.7 44 6.3 SSE 19 22 10 12 1012.8 1012.8 0.0
01/02:00pm 18.7 15.0 6.2 44 6.2 SSE 15 19 8 10 1013.0 1013.0 0.0
01/01:30pm 18.6 14.7 7.1 47 5.8 SE 17 24 9 13 1013.1 1013.1 0.0
01/01:00pm 19.2 15.7 7.0 45 6.2 SE 15 22 8 12 1013.3 1013.3 0.0
01/12:30pm 19.4 16.7 5.8 41 6.7 NE 9 13 5 7 1013.7 1013.7 0.0
01/12:00pm 19.9 16.4 3.6 34 7.7 NW 11 17 6 9 1014.1 1014.1 0.0
01/11:30am 18.6 15.4 3.3 36 7.1 W 9 17 5 9 1014.6 1014.6 0.0
01/11:00am 18.1 15.1 4.3 40 6.5 WSW 9 20 5 11 1015.1 1015.1 0.0
01/10:30am 17.6 14.9 5.5 45 5.9 NW 9 15 5 8 1015.6 1015.6 0.0
01/10:00am 16.9 13.4 5.5 47 5.5 WNW 13 15 7 8 1015.8 1015.8 0.0
01/09:30am 15.9 11.2 5.2 49 5.1 W 19 24 10 13 1015.9 1015.9 0.0
01/09:00am 15.2 11.0 5.7 53 4.5 W 17 24 9 13 1016.1 1016.1 0.0
01/08:30am 13.7 9.6 6.3 61 3.5 WNW 17 28 9 15 1016.1 1016.1 0.0
01/08:00am 12.5 8.8 6.5 67 2.9 WNW 15 20 8 11 1015.9 1015.9 0.0
01/07:30am 11.1 7.9 7.0 76 2.0 W 13 17 7 9 1015.6 1015.6 0.0
01/07:00am 9.7 6.8 6.4 80 1.5 W 11 17 6 9 1015.3 1015.3 0.0
01/06:30am 8.4 5.4 6.0 85 1.1 WSW 11 15 6 8 1015.0 1015.0 0.0
01/06:00am 8.6 5.2 6.1 84 1.1 W 13 17 7 9 1014.7 1014.7 0.0
01/05:30am 8.3 5.3 5.8 84 1.1 WNW 11 15 6 8 1014.4 1014.4 0.0
01/05:00am 9.0 6.1 6.6 85 1.1 WNW 11 17 6 9 1014.3 1014.3 0.0
01/04:30am 7.7 5.2 6.5 92 0.5 W 9 13 5 7 1014.1 1014.1 0.0
01/04:00am 6.9 4.7 5.5 91 0.6 WSW 6 7 3 4 1014.0 1014.0 0.0
01/03:30am 7.4 5.3 6.0 91 0.6 WSW 6 9 3 5 1013.9 1013.9 0.0
01/03:00am 8.0 7.3 6.8 92 0.6 CALM 0 0 0 0 1013.8 1013.8 0.0
01/02:30am 8.1 7.4 6.9 92 0.6 CALM 0 0 0 0 1014.1 1014.1 0.0
01/02:00am 8.7 7.0 7.5 92 0.6 WNW 6 13 3 7 1014.3 1014.3 0.0
01/01:30am 7.9 7.1 6.7 92 0.6 CALM 0 7 0 4 1014.6 1014.6 0.0
01/01:00am 8.0 7.3 6.9 93 0.5 CALM 0 0 0 0 1014.9 1014.9 0.0
01/12:30am 8.3 7.7 7.2 93 0.5 CALM 0 0 0 0 1015.0 1015.0 0.0
01/12:00am 8.3 7.6 6.9 91 0.6 CALM 0 0 0 0 1015.2 1015.2 0.0
 
Date/Time
EST
Temp
°C
App
Temp
°C
Dew
Point
Rel
Hum
%
Delta-T
°C
Wind Press
QNH
hPa
Press
MSL
hPa
Rain
since 9 am
mm
Dir
 
Spd
km/h
Gust
km/h
Spd
kts
Gust
kts
31/11:30pm 8.6 7.9 7.1 90 0.7 CALM 0 0 0 0 1015.5 1015.5 0.0
31/11:00pm 9.2 7.8 7.3 88 0.9 NW 4 6 2 3 1015.2 1015.2 0.0
31/10:30pm 9.9 6.3 8.3 90 0.8 NW 17 19 9 10 1015.4 1015.4 0.0
31/10:00pm 9.7 9.1 7.6 87 1.0 CALM 0 0 0 0 1015.8 1015.8 0.0
31/09:30pm 8.7 6.7 7.0 89 0.8 SW 7 9 4 5 1015.7 1015.7 0.0
31/09:00pm 9.4 8.2 8.0 91 0.7 WNW 4 7 2 4 1015.6 1015.6 0.0
31/08:30pm 8.9 7.8 7.0 88 0.9 WSW 2 7 1 4 1015.4 1015.4 0.0
31/08:00pm 9.9 9.4 7.8 87 1.0 CALM 0 0 0 0 1015.3 1015.3 0.0
31/07:30pm 9.9 8.6 7.5 85 1.1 WNW 4 7 2 4 1014.9 1014.9 0.0
31/07:00pm 10.7 10.2 7.8 82 1.4 CALM 0 0 0 0 1014.6 1014.6 0.0
31/06:30pm 11.8 10.3 8.6 81 1.6 W 6 7 3 4 1014.4 1014.4 0.0
31/06:00pm 13.2 11.7 8.3 72 2.4 WSW 6 7 3 4 1014.2 1014.2 0.0
31/05:30pm 15.2 13.1 8.4 64 3.4 S 9 13 5 7 1013.9 1013.9 0.0
31/05:00pm 16.8 14.0 8.5 58 4.2 S 13 20 7 11 1013.7 1013.7 0.0
31/04:30pm 17.3 13.4 8.7 57 4.4 S 19 26 10 14 1013.5 1013.5 0.0
31/04:00pm 17.8 13.5 7.8 52 5.1 S 20 28 11 15 1013.2 1013.2 0.0
31/03:30pm 18.2 13.2 8.2 52 5.1 S 24 32 13 17 1013.2 1013.2 0.0
31/03:00pm 18.1 14.6 8.9 55 4.8 SSE 17 24 9 13 1013.4 1013.4 0.0
31/02:30pm 18.1 13.4 7.8 51 5.2 SSE 22 32 12 17 1013.4 1013.4 0.0
31/02:00pm 17.7 13.6 8.0 53 4.9 S 19 26 10 14 1013.7 1013.7 0.0
31/01:30pm 17.7 13.6 8.6 55 4.7 SSE 20 26 11 14 1013.9 1013.9 0.0
31/01:00pm 18.9 14.7 7.4 47 5.8 SSE 19 28 10 15 1013.9 1013.9 0.0
31/12:30pm 20.3 16.4 7.0 42 6.8 SSW 17 26 9 14 1014.3 1014.3 0.0
31/12:00pm 19.0 14.8 5.8 42 6.5 SW 17 26 9 14 1014.7 1014.7 0.0
31/11:30am 19.3 14.6 6.1 42 6.5 SW 20 26 11 14 1014.9 1014.9 0.0
31/11:00am 18.7 14.8 6.9 46 5.9 WSW 17 22 9 12 1015.4 1015.4 0.0
31/10:30am 18.3 13.4 7.1 48 5.6 SW 22 28 12 15 1015.7 1015.7 0.0
31/10:00am 18.0 13.9 7.7 51 5.2 SW 19 26 10 14 1016.0 1016.0 0.0
31/09:30am 16.5 13.6 8.2 58 4.2 W 13 20 7 11 1016.3 1016.3 0.0
31/09:00am 15.2 12.2 7.5 60 3.8 W 13 19 7 10 1016.4 1016.4 0.0
31/08:30am 14.1 11.1 7.6 65 3.2 W 13 19 7 10 1016.4 1016.4 0.0
31/08:00am 12.9 9.5 7.6 70 2.6 W 15 19 8 10 1016.4 1016.4 0.0
31/07:30am 11.4 7.4 6.5 72 2.3 W 17 24 9 13 1016.3 1016.3 0.0
31/07:00am 10.3 6.6 6.1 75 1.9 W 15 20 8 11 1016.3 1016.3 0.0
31/06:30am 9.6 6.2 6.1 79 1.6 W 13 20 7 11 1016.2 1016.2 0.0
31/06:00am 9.4 5.2 5.8 78 1.6 W 17 24 9 13 1016.1 1016.1 0.0
31/05:30am 9.5 5.3 5.9 78 1.6 W 17 20 9 11 1015.8 1015.8 0.0
31/05:00am 9.4 4.9 5.9 79 1.6 WNW 19 28 10 15 1015.7 1015.7 0.0
31/04:30am 9.0 6.0 6.1 82 1.3 W 11 17 6 9 1015.7 1015.7 0.0
31/04:00am 9.0 6.4 5.9 81 1.4 W 9 13 5 7 1015.7 1015.7 0.0
31/03:30am 9.8 6.1 6.3 79 1.6 W 15 20 8 11 1015.7 1015.7 0.0
31/03:00am 9.6 5.9 6.3 80 1.5 W 15 20 8 11 1016.1 1016.1 0.0
31/02:30am 10.0 6.3 6.5 79 1.6 W 15 24 8 13 1016.3 1016.3 0.0
31/02:00am 9.8 5.8 6.5 80 1.5 WNW 17 20 9 11 1016.6 1016.6 0.0
31/01:30am 9.8 6.2 6.7 81 1.5 WNW 15 19 8 10 1017.0 1017.0 0.0
31/01:00am 10.0 6.4 6.9 81 1.5 W 15 19 8 10 1017.1 1017.1 0.0
31/12:30am 10.3 7.2 7.4 82 1.4 WNW 13 20 7 11 1017.3 1017.3 0.0
31/12:00am 10.4 6.6 7.5 82 1.4 WNW 17 20 9 11 1017.2 1017.2 0.0
 
Date/Time
EST
Temp
°C
App
Temp
°C
Dew
Point
Rel
Hum
%
Delta-T
°C
Wind Press
QNH
hPa
Press
MSL
hPa
Rain
since 9 am
mm
Dir
 
Spd
km/h
Gust
km/h
Spd
kts
Gust
kts
30/11:30pm 9.6 6.6 7.7 88 0.9 W 13 17 7 9 1017.4 1017.4 0.0
30/11:00pm 8.6 6.6 6.4 86 1.0 W 6 7 3 4 1017.4 1017.4 0.0
30/10:30pm 8.6 6.1 6.6 87 0.9 WSW 9 11 5 6 1017.7 1017.7 0.0
30/10:00pm 8.0 5.8 6.1 88 0.9 WSW 7 11 4 6 1017.8 1017.8 0.0
30/09:30pm 9.9 9.3 7.3 84 1.2 CALM 0 0 0 0 1017.8 1017.8 0.0
30/09:00pm 10.8 9.0 8.0 83 1.4 WSW 7 11 4 6 1017.9 1017.9 0.0
30/08:30pm 11.1 9.3 8.0 81 1.5 WSW 7 9 4 5 1017.8 1017.8 0.0
30/08:00pm 11.4 9.2 7.9 79 1.7 WNW 9 11 5 6 1017.6 1017.6 0.0
30/07:30pm 12.8 10.8 8.5 75 2.1 SW 9 13 5 7 1017.3 1017.3 0.0
30/07:00pm 13.8 11.4 8.6 71 2.6 SW 11 13 6 7 1017.0 1017.0 0.0
30/06:30pm 13.9 11.9 8.7 71 2.6 SW 9 13 5 7 1016.7 1016.7 0.0
30/06:00pm 14.9 11.7 8.4 65 3.3 S 15 20 8 11 1016.3 1016.3 0.0
30/05:30pm 15.5 12.1 7.8 60 3.8 S 15 26 8 14 1016.0 1016.0 0.0
30/05:00pm 16.4 12.3 8.6 60 4.0 S 20 33 11 18 1015.8 1015.8 0.0
30/04:30pm 17.0 12.0 8.2 56 4.5 S 24 33 13 18 1015.6 1015.6 0.0
30/04:00pm 17.6 12.7 8.5 55 4.7 S 24 35 13 19 1015.4 1015.4 0.0
30/03:30pm 17.9 12.4 7.6 51 5.2 S 26 35 14 19 1015.4 1015.4 0.0
30/03:00pm 18.6 13.3 6.8 46 5.9 S 24 35 13 19 1015.5 1015.5 0.0
30/02:30pm 18.8 13.9 6.9 46 6.0 S 22 32 12 17 1015.5 1015.5 0.0
30/02:00pm 19.1 13.9 7.2 46 6.0 SSE 24 30 13 16 1015.6 1015.6 0.0
30/01:30pm 19.2 14.3 7.0 45 6.2 SSE 22 28 12 15 1015.7 1015.7 0.0
30/01:00pm 19.2 14.3 7.0 45 6.1 SSE 22 28 12 15 1016.0 1016.0 0.0
30/12:30pm 18.9 14.4 6.1 43 6.3 SSE 19 28 10 15 1016.4 1016.4 0.0
30/12:00pm 19.1 15.8 6.2 43 6.4 S 13 22 7 12 1016.9 1016.9 0.0
30/11:30am 18.8 15.3 5.6 42 6.5 SW 13 26 7 14 1017.5 1017.5 0.0
30/11:00am 18.2 13.9 5.4 43 6.2 SSW 17 24 9 13 1017.9 1017.9 0.0
30/10:30am 18.2 13.4 5.4 43 6.2 SW 20 28 11 15 1018.2 1018.2 0.0
30/10:00am 17.4 11.7 5.0 44 5.9 SW 24 30 13 16 1018.3 1018.3 0.0
30/09:30am 16.7 11.1 5.3 47 5.5 SW 24 32 13 17 1018.5 1018.5 0.0
30/09:00am 15.2 10.5 6.2 55 4.3 WSW 20 28 11 15 1018.9 1018.9 0.0
30/08:30am 13.4 10.1 6.5 63 3.3 W 13 19 7 10 1019.1 1019.1 0.0
30/08:00am 12.4 9.2 6.9 69 2.6 W 13 17 7 9 1019.2 1019.2 0.0
30/07:30am 11.3 8.3 5.8 69 2.6 W 11 15 6 8 1018.9 1018.9 0.0
30/07:00am 11.2 8.3 6.3 72 2.3 W 11 15 6 8 1018.3 1018.3 0.0
30/06:30am 9.9 6.9 6.1 77 1.8 W 11 15 6 8 1018.0 1018.0 0.0
30/06:00am 9.9 6.9 6.1 77 1.8 W 11 15 6 8 1018.0 1018.0 0.0
30/05:30am 10.5 7.6 6.6 77 1.8 SW 11 13 6 7 1017.9 1017.9 0.0
30/05:00am 10.8 8.0 6.9 77 1.8 SW 11 11 6 6 1017.7 1017.7 0.0
30/04:30am 11.3 8.1 6.8 74 2.1 SW 13 17 7 9 1017.6 1017.6 0.0
30/04:00am 11.7 9.1 7.6 76 2.0 WSW 11 15 6 8 1017.7 1017.7 0.0
30/03:30am 10.1 7.3 8.4 89 0.8 SW 13 15 7 8 1017.7 1017.7 0.0
30/03:00am 7.8 5.8 6.9 94 0.4 SW 7 11 4 6 1017.6 1017.6 0.0
30/02:30am 7.8 6.3 6.6 92 0.6 SSW 4 7 2 4 1017.6 1017.6 0.0
30/02:00am 9.1 7.4 7.4 89 0.8 W 6 7 3 4 1017.8 1017.8 0.0
30/01:30am 10.0 8.2 8.1 88 0.9 WSW 7 7 4 4 1017.9 1017.9 0.0
30/01:00am 10.8 9.2 8.6 86 1.1 SW 7 9 4 5 1018.0 1018.0 0.0
30/12:30am 12.0 10.1 9.0 82 1.5 WSW 9 15 5 8 1018.3 1018.3 0.0
30/12:00am 13.0 10.2 10.0 82 1.5 W 15 20 8 11 1019.0 1019.0 0.0
 
Date/Time
EST
Temp
°C
App
Temp
°C
Dew
Point
Rel
Hum
%
Delta-T
°C
Wind Press
QNH
hPa
Press
MSL
hPa
Rain
since 9 am
mm
Dir
 
Spd
km/h
Gust
km/h
Spd
kts
Gust
kts
29/11:30pm 11.9 9.8 11.0 94 0.5 W 13 19 7 10 1018.9 1018.9 0.0
29/11:00pm 9.7 8.3 8.8 94 0.4 SW 6 7 3 4 1018.8 1018.8 0.0
29/10:30pm 10.1 9.1 9.0 93 0.5 W 4 7 2 4 1018.8 1018.8 0.0
29/10:00pm 10.0 9.4 8.8 92 0.6 W 2 9 1 5 1019.1 1019.1 0.0
29/09:30pm 10.6 9.4 9.5 93 0.6 SW 6 7 3 4 1018.8 1018.8 0.0
29/09:00pm 11.0 9.7 9.9 93 0.6 SW 7 9 4 5 1018.8 1018.8 0.0
29/08:30pm 10.7 9.2 9.0 89 0.8 SW 7 9 4 5 1019.0 1019.0 0.0
29/08:00pm 12.1 12.2 10.2 88 1.0 CALM 0 0 0 0 1019.0 1019.0 0.0
29/07:30pm 12.7 11.3 10.8 88 1.0 SW 9 11 5 6 1018.8 1018.8 0.0
29/07:00pm 13.1 13.0 9.4 78 1.9 CALM 0 0 0 0 1018.6 1018.6 0.0
29/06:30pm 15.5 14.4 10.5 72 2.6 NW 7 9 4 5 1018.4 1018.4 0.0
29/06:00pm 16.5 14.8 11.2 71 2.8 N 11 17 6 9 1018.1 1018.1 0.0
29/05:30pm 17.3 14.9 11.3 68 3.2 NNE 15 20 8 11 1017.7 1017.7 0.0
29/05:00pm 18.2 15.1 11.7 66 3.6 NNE 19 28 10 15 1017.6 1017.6 0.0
29/04:30pm 18.8 15.1 11.6 63 4.0 NE 22 30 12 16 1017.3 1017.3 0.0
29/04:00pm 19.3 15.2 11.3 60 4.4 NE 24 30 13 16 1017.5 1017.5 0.0

Other Formats:

Comma delimited format used in spreadsheet applications
http://www.bom.gov.au/fwo/IDN60801/IDN60801.94786.axf

JavaScript Object Notation format (JSON) in row-major order
http://www.bom.gov.au/fwo/IDN60801/IDN60801.94786.json